Marchen Maersk — OUIY2 — position and weather

sailwx.info

Track history (hours):
 
Tides and Currents Weather Stations Pressure Air Temp Water Temp Dewpoint Dewpoint Depression Visibility Wind Speed Wind Dir Waves Ship Positions

Marchen Maersk

Last reported at 2018-Jan-21 10:30 UTC. Time now 2018-Jan-21 10:42 UTC.
Position N 37°13' W 122°40'.

Length 367 m; draft 11.5 m.

Type: Ship (hazmat cat A). MMSI: 220594000.

Date/timePositionNaut miles runAvg speedWind from/ knotsBaromVisibWave heightAir tempDewpointWater temp
2018-Jan-21 10:30N 37°13' W 122°40'5 9.0
2018-Jan-21 10:00N 37°09' W 122°39'5 9.1
2018-Jan-21 09:30N 37°05' W 122°37'5 9.1
2018-Jan-21 09:00N 37°00' W 122°35'5 9.3
2018-Jan-21 08:30N 36°56' W 122°33'5 9.5
2018-Jan-21 07:59N 36°51' W 122°31'5 9.6
2018-Jan-21 07:30N 36°47' W 122°29'5 9.5
2018-Jan-21 06:59N 36°42' W 122°27'5 9.5
2018-Jan-21 06:30N 36°38' W 122°25'5 9.2
2018-Jan-21 06:00N 36°34' W 122°23'5 9.4
2018-Jan-21 05:30N 36°30' W 122°20'5 9.6
2018-Jan-21 05:00N 36°25' W 122°18'510.1
2018-Jan-21 04:30N 36°20' W 122°16'5 9.6
2018-Jan-21 04:00N 36°16' W 122°13'5 9.6
2018-Jan-21 03:30N 36°12' W 122°10'5 9.6
2018-Jan-21 03:00N 36°08' W 122°07'5 9.5
2018-Jan-21 02:30N 36°04' W 122°04'5 9.5
2018-Jan-21 02:00N 35°60' W 122°01'5 9.6
2018-Jan-21 01:30N 35°56' W 121°58'5 9.6
2018-Jan-21 01:00N 35°51' W 121°55'5 9.6
2018-Jan-21 00:30N 35°47' W 121°53'5 9.5
2018-Jan-21 00:00N 35°42' W 121°51'5 9.5
2018-Jan-20 23:30N 35°38' W 121°48'5 9.4
2018-Jan-20 23:00N 35°34' W 121°46'7 9.1
2018-Jan-20 22:15N 35°27' W 121°43'2 9.4
2018-Jan-20 22:00N 35°25' W 121°42'5 9.2
2018-Jan-20 21:31N 35°21' W 121°40'510.9
2018-Jan-20 21:01N 35°16' W 121°37'918.5
2018-Jan-20 20:30N 35°07' W 121°37'1019.3
2018-Jan-20 20:00N 34°57' W 121°37'918.1
2018-Jan-20 19:31N 34°48' W 121°35'918.9
2018-Jan-20 19:00N 34°44' W 121°25'1019.6
2018-Jan-20 18:30N 34°42' W 121°13'918.0
2018-Jan-20 18:00N 34°38' W 121°04'918.4
2018-Jan-20 17:30N 34°32' W 120°55'612.8
2018-Jan-20 17:00N 34°26' W 120°51'5 9.3
2018-Jan-20 16:30N 34°25' W 120°46'5 9.9
2018-Jan-20 16:00N 34°24' W 120°40'510.3
2018-Jan-20 15:30N 34°22' W 120°34'710.9
2018-Jan-20 14:54N 34°20' W 120°26'411.0
2018-Jan-20 14:30N 34°19' W 120°21'610.7
2018-Jan-20 13:59N 34°18' W 120°14'510.5
2018-Jan-20 13:30N 34°16' W 120°09'710.2
2018-Jan-20 12:51N 34°15' W 120°01'610.6
2018-Jan-20 12:17N 34°13' W 119°54'310.7
2018-Jan-20 11:58N 34°12' W 119°50'510.5
2018-Jan-20 11:28N 34°11' W 119°44'510.3
2018-Jan-20 11:00N 34°10' W 119°38'510.3
2018-Jan-20 10:29N 34°08' W 119°32'510.3
2018-Jan-20 09:59N 34°07' W 119°26'510.7
2018-Jan-20 09:29N 34°06' W 119°20'510.6
2018-Jan-20 08:59N 34°04' W 119°14'510.7
2018-Jan-20 08:30N 34°01' W 119°08'510.8
2018-Jan-20 08:00N 33°58' W 119°03'510.7
2018-Jan-20 07:30N 33°56' W 118°57'511.1
2018-Jan-20 07:00N 33°53' W 118°51'611.3
2018-Jan-20 06:30N 33°50' W 118°45'510.5
2018-Jan-20 06:00N 33°48' W 118°40'510.4
2018-Jan-20 05:30N 33°45' W 118°34'510.2
2018-Jan-20 05:00N 33°42' W 118°29'610.1
2018-Jan-20 04:22N 33°39' W 118°22'810.6
2018-Jan-20 03:37N 33°39' W 118°13'6 0.4
2018-Jan-19 10:06N 33°45' W 118°14'0 0.0
2018-Jan-19 08:36N 33°45' W 118°14'0 0.0
2018-Jan-19 08:24N 33°45' W 118°14'0 0.0
2018-Jan-19 08:00N 33°45' W 118°14'0 0.0
2018-Jan-19 06:54N 33°45' W 118°14'0 0.0
2018-Jan-19 06:30N 33°45' W 118°14'0 0.0
2018-Jan-19 04:48N 33°45' W 118°14'0 0.0
2018-Jan-19 04:30N 33°45' W 118°14'0 0.0
2018-Jan-19 04:00N 33°45' W 118°14'0 0.0
2018-Jan-19 03:30N 33°45' W 118°14'0 0.0
2018-Jan-19 03:00N 33°45' W 118°14'0 0.0
2018-Jan-19 02:30N 33°45' W 118°14'0 0.0
2018-Jan-19 02:00N 33°45' W 118°14'0 0.0
2018-Jan-19 01:30N 33°45' W 118°14'0 0.0
2018-Jan-19 00:57N 33°45' W 118°14'0 0.0
2018-Jan-19 00:27N 33°45' W 118°14'0 0.0
2018-Jan-18 23:57N 33°45' W 118°14'0 0.0
2018-Jan-18 23:30N 33°45' W 118°14'0 0.0
2018-Jan-18 23:00N 33°45' W 118°14'0 0.0
2018-Jan-18 22:27N 33°45' W 118°14'0 0.0
2018-Jan-18 21:57N 33°45' W 118°14'0 0.0
2018-Jan-18 21:27N 33°45' W 118°14'0 0.0
2018-Jan-18 21:00N 33°45' W 118°14'0 0.0
2018-Jan-18 20:30N 33°45' W 118°14'0 0.0
2018-Jan-18 19:45N 33°45' W 118°14'0 0.0
2018-Jan-18 19:27N 33°45' W 118°14'0 0.0
2018-Jan-18 19:00N 33°45' W 118°14'0 0.0
2018-Jan-18 18:27N 33°45' W 118°14'0 0.0
2018-Jan-18 17:51N 33°45' W 118°14'0 0.0
2018-Jan-18 17:27N 33°45' W 118°14'0 0.0
2018-Jan-18 16:15N 33°45' W 118°14'0 0.0
2018-Jan-18 15:57N 33°45' W 118°14'0 0.0
2018-Jan-18 15:27N 33°45' W 118°14'0 0.0
2018-Jan-18 14:57N 33°45' W 118°14'0 0.0
2018-Jan-18 14:21N 33°45' W 118°14'0 0.0
2018-Jan-18 13:57N 33°45' W 118°14'0 0.0
2018-Jan-18 13:27N 33°45' W 118°14'0 0.0
2018-Jan-18 12:57N 33°45' W 118°14'0 0.0
2018-Jan-18 12:27N 33°45' W 118°14'0 0.0
2018-Jan-18 11:57N 33°45' W 118°14'0 0.0
2018-Jan-18 09:33N 33°45' W 118°14'0 0.0
2018-Jan-18 09:27N 33°45' W 118°14'0 0.0
2018-Jan-18 08:33N 33°45' W 118°14'0 0.0
2018-Jan-18 08:27N 33°45' W 118°14'0 0.0
2018-Jan-18 07:57N 33°45' W 118°14'0 0.0
2018-Jan-18 07:27N 33°45' W 118°14'0 0.0
2018-Jan-18 06:39N 33°45' W 118°14'0 0.0
2018-Jan-18 06:27N 33°45' W 118°14'0 0.0
2018-Jan-18 05:57N 33°45' W 118°14'0 0.0
2018-Jan-18 05:27N 33°45' W 118°14'0 0.0
2018-Jan-18 04:57N 33°45' W 118°14'0 0.0
2018-Jan-18 04:27N 33°45' W 118°14'0 0.0
2018-Jan-18 03:57N 33°45' W 118°14'0 0.0
2018-Jan-18 03:27N 33°45' W 118°14'0 0.0
2018-Jan-18 02:45N 33°45' W 118°14'0 0.0
2018-Jan-18 02:27N 33°45' W 118°14'  
Track history (hours):
 
Tides and Currents Weather Stations Pressure Air Temp Water Temp Dewpoint Dewpoint Depression Visibility Wind Speed Wind Dir Waves Ship Positions

Marchen Maersk

Last reported at 2018-Jan-21 10:30 UTC. Time now 2018-Jan-21 10:42 UTC.
Position N 37°13' W 122°40'.

Length 367 m; draft 11.5 m.

Type: Ship (hazmat cat A). MMSI: 220594000.

Date/timePositionNaut miles runAvg speedWind from/ knotsBaromVisibWave heightAir tempDewpointWater temp
2018-Jan-21 10:30N 37°13' W 122°40'5 9.0
2018-Jan-21 10:00N 37°09' W 122°39'5 9.1
2018-Jan-21 09:30N 37°05' W 122°37'5 9.1
2018-Jan-21 09:00N 37°00' W 122°35'5 9.3
2018-Jan-21 08:30N 36°56' W 122°33'5 9.5
2018-Jan-21 07:59N 36°51' W 122°31'5 9.6
2018-Jan-21 07:30N 36°47' W 122°29'5 9.5
2018-Jan-21 06:59N 36°42' W 122°27'5 9.5
2018-Jan-21 06:30N 36°38' W 122°25'5 9.2
2018-Jan-21 06:00N 36°34' W 122°23'5 9.4
2018-Jan-21 05:30N 36°30' W 122°20'5 9.6
2018-Jan-21 05:00N 36°25' W 122°18'510.1
2018-Jan-21 04:30N 36°20' W 122°16'5 9.6
2018-Jan-21 04:00N 36°16' W 122°13'5 9.6
2018-Jan-21 03:30N 36°12' W 122°10'5 9.6
2018-Jan-21 03:00N 36°08' W 122°07'5 9.5
2018-Jan-21 02:30N 36°04' W 122°04'5 9.5
2018-Jan-21 02:00N 35°60' W 122°01'5 9.6
2018-Jan-21 01:30N 35°56' W 121°58'5 9.6
2018-Jan-21 01:00N 35°51' W 121°55'5 9.6
2018-Jan-21 00:30N 35°47' W 121°53'5 9.5
2018-Jan-21 00:00N 35°42' W 121°51'5 9.5
2018-Jan-20 23:30N 35°38' W 121°48'5 9.4
2018-Jan-20 23:00N 35°34' W 121°46'7 9.1
2018-Jan-20 22:15N 35°27' W 121°43'2 9.4
2018-Jan-20 22:00N 35°25' W 121°42'5 9.2
2018-Jan-20 21:31N 35°21' W 121°40'510.9
2018-Jan-20 21:01N 35°16' W 121°37'918.5
2018-Jan-20 20:30N 35°07' W 121°37'1019.3
2018-Jan-20 20:00N 34°57' W 121°37'918.1
2018-Jan-20 19:31N 34°48' W 121°35'918.9
2018-Jan-20 19:00N 34°44' W 121°25'1019.6
2018-Jan-20 18:30N 34°42' W 121°13'918.0
2018-Jan-20 18:00N 34°38' W 121°04'918.4
2018-Jan-20 17:30N 34°32' W 120°55'612.8
2018-Jan-20 17:00N 34°26' W 120°51'5 9.3
2018-Jan-20 16:30N 34°25' W 120°46'5 9.9
2018-Jan-20 16:00N 34°24' W 120°40'510.3
2018-Jan-20 15:30N 34°22' W 120°34'710.9
2018-Jan-20 14:54N 34°20' W 120°26'411.0
2018-Jan-20 14:30N 34°19' W 120°21'610.7
2018-Jan-20 13:59N 34°18' W 120°14'510.5
2018-Jan-20 13:30N 34°16' W 120°09'710.2
2018-Jan-20 12:51N 34°15' W 120°01'610.6
2018-Jan-20 12:17N 34°13' W 119°54'310.7
2018-Jan-20 11:58N 34°12' W 119°50'510.5
2018-Jan-20 11:28N 34°11' W 119°44'510.3
2018-Jan-20 11:00N 34°10' W 119°38'510.3
2018-Jan-20 10:29N 34°08' W 119°32'510.3
2018-Jan-20 09:59N 34°07' W 119°26'510.7
2018-Jan-20 09:29N 34°06' W 119°20'510.6
2018-Jan-20 08:59N 34°04' W 119°14'510.7
2018-Jan-20 08:30N 34°01' W 119°08'510.8
2018-Jan-20 08:00N 33°58' W 119°03'510.7
2018-Jan-20 07:30N 33°56' W 118°57'511.1
2018-Jan-20 07:00N 33°53' W 118°51'611.3
2018-Jan-20 06:30N 33°50' W 118°45'510.5
2018-Jan-20 06:00N 33°48' W 118°40'510.4
2018-Jan-20 05:30N 33°45' W 118°34'510.2
2018-Jan-20 05:00N 33°42' W 118°29'610.1
2018-Jan-20 04:22N 33°39' W 118°22'810.6
2018-Jan-20 03:37N 33°39' W 118°13'6 0.4
2018-Jan-19 10:06N 33°45' W 118°14'0 0.0
2018-Jan-19 08:36N 33°45' W 118°14'0 0.0
2018-Jan-19 08:24N 33°45' W 118°14'0 0.0
2018-Jan-19 08:00N 33°45' W 118°14'0 0.0
2018-Jan-19 06:54N 33°45' W 118°14'0 0.0
2018-Jan-19 06:30N 33°45' W 118°14'0 0.0
2018-Jan-19 04:48N 33°45' W 118°14'0 0.0
2018-Jan-19 04:30N 33°45' W 118°14'0 0.0
2018-Jan-19 04:00N 33°45' W 118°14'0 0.0
2018-Jan-19 03:30N 33°45' W 118°14'0 0.0
2018-Jan-19 03:00N 33°45' W 118°14'0 0.0
2018-Jan-19 02:30N 33°45' W 118°14'0 0.0
2018-Jan-19 02:00N 33°45' W 118°14'0 0.0
2018-Jan-19 01:30N 33°45' W 118°14'0 0.0
2018-Jan-19 00:57N 33°45' W 118°14'0 0.0
2018-Jan-19 00:27N 33°45' W 118°14'0 0.0
2018-Jan-18 23:57N 33°45' W 118°14'0 0.0
2018-Jan-18 23:30N 33°45' W 118°14'0 0.0
2018-Jan-18 23:00N 33°45' W 118°14'0 0.0
2018-Jan-18 22:27N 33°45' W 118°14'0 0.0
2018-Jan-18 21:57N 33°45' W 118°14'0 0.0
2018-Jan-18 21:27N 33°45' W 118°14'0 0.0
2018-Jan-18 21:00N 33°45' W 118°14'0 0.0
2018-Jan-18 20:30N 33°45' W 118°14'0 0.0
2018-Jan-18 19:45N 33°45' W 118°14'0 0.0
2018-Jan-18 19:27N 33°45' W 118°14'0 0.0
2018-Jan-18 19:00N 33°45' W 118°14'0 0.0
2018-Jan-18 18:27N 33°45' W 118°14'0 0.0
2018-Jan-18 17:51N 33°45' W 118°14'0 0.0
2018-Jan-18 17:27N 33°45' W 118°14'0 0.0
2018-Jan-18 16:15N 33°45' W 118°14'0 0.0
2018-Jan-18 15:57N 33°45' W 118°14'0 0.0
2018-Jan-18 15:27N 33°45' W 118°14'0 0.0
2018-Jan-18 14:57N 33°45' W 118°14'0 0.0
2018-Jan-18 14:21N 33°45' W 118°14'0 0.0
2018-Jan-18 13:57N 33°45' W 118°14'0 0.0
2018-Jan-18 13:27N 33°45' W 118°14'0 0.0
2018-Jan-18 12:57N 33°45' W 118°14'0 0.0
2018-Jan-18 12:27N 33°45' W 118°14'0 0.0
2018-Jan-18 11:57N 33°45' W 118°14'0 0.0
2018-Jan-18 09:33N 33°45' W 118°14'0 0.0
2018-Jan-18 09:27N 33°45' W 118°14'0 0.0
2018-Jan-18 08:33N 33°45' W 118°14'0 0.0
2018-Jan-18 08:27N 33°45' W 118°14'0 0.0
2018-Jan-18 07:57N 33°45' W 118°14'0 0.0
2018-Jan-18 07:27N 33°45' W 118°14'0 0.0
2018-Jan-18 06:39N 33°45' W 118°14'0 0.0
2018-Jan-18 06:27N 33°45' W 118°14'0 0.0
2018-Jan-18 05:57N 33°45' W 118°14'0 0.0
2018-Jan-18 05:27N 33°45' W 118°14'0 0.0
2018-Jan-18 04:57N 33°45' W 118°14'0 0.0
2018-Jan-18 04:27N 33°45' W 118°14'0 0.0
2018-Jan-18 03:57N 33°45' W 118°14'0 0.0
2018-Jan-18 03:27N 33°45' W 118°14'0 0.0
2018-Jan-18 02:45N 33°45' W 118°14'0 0.0
2018-Jan-18 02:27N 33°45' W 118°14'  

Dump ship's entire track history